Terminal Aerodrome Forecast
Issued by NWS Wakefield, VA

Home | Current Version | Previous Version | Text Only | Print | Product List | Glossary On
Versions: 1 2 3 4 5 6 7 8 9 10 11 12 13 14 15 16 17 18 19 20
259
FTUS41 KAKQ 271120
TAFRIC
TAF
KRIC 271120Z 2712/2812 21004KT P6SM SKC
     FM271500 21009KT P6SM SCT060
     FM272000 21007KT P6SM VCTS BKN060CB
      TEMPO 2720/2724 29015G25KT 4SM TSRA SCT030CB BKN050
     FM280000 19003KT P6SM BKN060
     FM280700 04004KT P6SM SCT100=

USA.gov is the U.S. government's official web portal to all federal, state and local government web resources and services.